createdAt,value
2022-08-09T00:01:54.812Z,101074.84
2022-08-09T00:04:34.347Z,101078.50
2022-08-09T00:07:07.540Z,101085.41
2022-08-09T00:09:39.793Z,101073.50
2022-08-09T00:12:08.299Z,101089.47
2022-08-09T00:14:38.517Z,101086.19
2022-08-09T00:18:04.629Z,101077.25
2022-08-09T00:20:01.213Z,101074.25
2022-08-09T00:22:35.310Z,101078.03
2022-08-09T00:25:08.349Z,101073.00
2022-08-09T00:27:42.968Z,101075.31
2022-08-09T00:30:24.837Z,101069.06
2022-08-09T00:32:59.268Z,101065.31
2022-08-09T00:35:30.068Z,101079.84
2022-08-09T00:38:12.947Z,101078.13
2022-08-09T00:40:40.807Z,101059.47
2022-08-09T00:44:24.764Z,101068.59
2022-08-09T00:46:28.401Z,101068.69
2022-08-09T00:49:00.277Z,101064.66
2022-08-09T00:51:33.840Z,101055.22
2022-08-09T00:54:10.732Z,101063.69
2022-08-09T00:56:38.665Z,101057.53
2022-08-09T00:59:09.763Z,101061.09
2022-08-09T01:01:44.693Z,101063.41
2022-08-09T01:04:25.990Z,101053.88
2022-08-09T01:07:19.393Z,101048.28
2022-08-09T01:10:31.018Z,101053.47
2022-08-09T01:13:31.281Z,101054.81
2022-08-09T01:16:12.941Z,101040.22
2022-08-09T01:18:47.398Z,101040.09
2022-08-09T01:21:51.159Z,101036.06
2022-08-09T01:24:27.072Z,101050.88
2022-08-09T01:27:08.794Z,101055.88
2022-08-09T01:29:56.229Z,101059.81
2022-08-09T01:32:34.228Z,101054.66
2022-08-09T01:35:38.571Z,101061.81
2022-08-09T01:38:16.181Z,101068.00
2022-08-09T01:41:03.151Z,101068.91
2022-08-09T01:43:51.137Z,101075.81
2022-08-09T01:46:42.816Z,101077.91
2022-08-09T01:49:18.270Z,101083.69
2022-08-09T01:51:53.484Z,101086.09
2022-08-09T01:54:32.801Z,101092.63
2022-08-09T01:57:09.810Z,101091.78
2022-08-09T01:59:51.467Z,101093.06
2022-08-09T02:02:29.953Z,101097.31
2022-08-09T02:09:59.513Z,101108.13
2022-08-09T02:12:48.164Z,101103.06
2022-08-09T02:15:49.460Z,101103.34
2022-08-09T02:18:34.471Z,101104.31
2022-08-09T02:21:24.775Z,101105.53
2022-08-09T02:24:12.964Z,101114.72
2022-08-09T02:27:19.120Z,101105.59
2022-08-09T02:31:06.210Z,101105.31
2022-08-09T02:34:06.650Z,101110.03
2022-08-09T02:37:04.621Z,101109.09
2022-08-09T02:40:05.274Z,101108.53
2022-08-09T02:42:55.594Z,101107.63
2022-08-09T02:45:40.774Z,101107.16
2022-08-09T02:48:30.818Z,101110.13
2022-08-09T02:51:12.422Z,101110.97
2022-08-09T02:54:03.148Z,101101.94
2022-08-09T02:57:23.457Z,101099.09
2022-08-09T03:00:26.058Z,101096.84
2022-08-09T03:03:37.174Z,101089.53
2022-08-09T03:06:49.235Z,101088.50
2022-08-09T03:10:17.912Z,101097.88
2022-08-09T03:12:35.740Z,101093.59
2022-08-09T03:15:12.765Z,101086.16
2022-08-09T03:17:57.769Z,101090.44
2022-08-09T03:20:45.136Z,101080.88
2022-08-09T03:23:32.215Z,101070.56
2022-08-09T03:26:19.306Z,101071.78
2022-08-09T03:29:00.742Z,101065.16
2022-08-09T03:32:04.847Z,101064.50
2022-08-09T03:36:14.021Z,101058.34
2022-08-09T03:38:42.789Z,101069.78
2022-08-09T03:41:46.084Z,101056.03
2022-08-09T03:44:49.826Z,101070.94
2022-08-09T03:48:51.178Z,101069.13
2022-08-09T03:51:57.486Z,101078.28
2022-08-09T03:54:38.898Z,101072.75
2022-08-09T03:58:09.704Z,101089.34
2022-08-09T04:00:57.470Z,101089.56
2022-08-09T04:04:02.227Z,101099.59
2022-08-09T04:06:55.515Z,101096.00
2022-08-09T04:10:07.315Z,101093.22
2022-08-09T04:13:44.923Z,101104.13
2022-08-09T04:16:20.058Z,101105.25
2022-08-09T04:19:43.078Z,101110.97
2022-08-09T04:22:47.564Z,101107.28
2022-08-09T04:25:53.079Z,101122.97
2022-08-09T04:28:42.500Z,101114.91
2022-08-09T04:31:37.610Z,101118.88
2022-08-09T04:34:38.675Z,101119.69
2022-08-09T04:37:20.337Z,101128.28
2022-08-09T04:40:00.377Z,101123.69
2022-08-09T04:42:35.605Z,101127.25
2022-08-09T04:45:11.854Z,101117.91
2022-08-09T04:47:58.835Z,101132.13
2022-08-09T04:50:51.231Z,101122.84
2022-08-09T04:53:25.489Z,101134.50
2022-08-09T04:56:17.183Z,101130.94
2022-08-09T04:59:06.072Z,101131.81
2022-08-09T05:02:16.509Z,101139.72
2022-08-09T05:05:31.543Z,101149.47
2022-08-09T05:11:14.924Z,101144.72
2022-08-09T05:18:39.658Z,101146.91
2022-08-09T05:20:29.969Z,101153.38
2022-08-09T05:23:54.082Z,101163.31
2022-08-09T05:30:32.759Z,101169.28
2022-08-09T05:33:34.223Z,101150.25
2022-08-09T05:53:00.057Z,101160.88
2022-08-09T06:00:11.173Z,101160.69
2022-08-09T06:08:31.246Z,101165.22
2022-08-09T06:18:09.088Z,101178.63
2022-08-09T06:20:39.342Z,101174.81
2022-08-09T06:23:06.899Z,101171.69
2022-08-09T06:25:39.707Z,101180.97
2022-08-09T06:28:10.945Z,101184.22
2022-08-09T06:30:43.299Z,101178.69
2022-08-09T06:33:30.138Z,101179.50
2022-08-09T06:35:58.902Z,101174.78
2022-08-09T06:38:32.161Z,101170.94
2022-08-09T06:41:18.636Z,101174.31
2022-08-09T06:43:48.182Z,101178.56
2022-08-09T06:46:39.675Z,101181.81
2022-08-09T06:50:12.252Z,101186.84
2022-08-09T06:52:18.418Z,101184.81
2022-08-09T06:54:46.234Z,101183.38
2022-08-09T06:57:16.187Z,101195.25
2022-08-09T07:00:52.036Z,101182.00
2022-08-09T07:02:36.834Z,101188.31
2022-08-09T07:05:07.656Z,101200.00
2022-08-09T07:07:59.922Z,101206.31
2022-08-09T07:10:31.195Z,101209.22
2022-08-09T07:13:00.421Z,101209.97
2022-08-09T07:16:35.356Z,101210.88
2022-08-09T07:18:34.135Z,101206.25
2022-08-09T07:21:01.881Z,101212.91
2022-08-09T07:23:29.812Z,101211.75
2022-08-09T07:26:04.313Z,101206.63
2022-08-09T07:28:34.633Z,101203.53
2022-08-09T07:31:04.975Z,101208.38
2022-08-09T07:34:01.574Z,101212.19
2022-08-09T07:36:32.471Z,101209.22
2022-08-09T07:39:02.224Z,101207.31
2022-08-09T07:41:57.217Z,101208.59
2022-08-09T07:44:52.128Z,101218.06
2022-08-09T07:47:18.780Z,101225.72
2022-08-09T07:50:04.661Z,101220.97
2022-08-09T07:52:33.876Z,101208.53
2022-08-09T07:55:09.620Z,101217.81
2022-08-09T07:57:47.084Z,101217.81
2022-08-09T08:00:20.858Z,101225.66
2022-08-09T08:03:04.985Z,101217.13
2022-08-09T08:05:39.178Z,101223.72
2022-08-09T08:09:02.584Z,101220.66
2022-08-09T08:12:11.194Z,101220.59
2022-08-09T08:14:00.184Z,101225.81
2022-08-09T08:16:31.904Z,101222.25
2022-08-09T08:19:02.786Z,101219.69
2022-08-09T08:21:31.400Z,101210.66
2022-08-09T08:24:11.851Z,101225.00
2022-08-09T08:26:54.636Z,101222.03
2022-08-09T08:29:28.124Z,101226.25
2022-08-09T08:32:03.927Z,101220.78
2022-08-09T08:34:36.614Z,101216.53
2022-08-09T08:37:05.261Z,101231.41
2022-08-09T08:39:39.991Z,101217.91
2022-08-09T08:42:11.974Z,101229.97
2022-08-09T08:44:42.019Z,101207.31
2022-08-09T08:47:14.904Z,101215.69
2022-08-09T08:49:48.611Z,101223.09
2022-08-09T08:52:57.566Z,101219.25
2022-08-09T08:55:19.159Z,101224.19
2022-08-09T08:57:57.595Z,101216.81
2022-08-09T09:00:34.625Z,101215.69
2022-08-09T09:03:08.708Z,101222.03
2022-08-09T09:44:45.725Z,101206.66
2022-08-09T09:51:38.488Z,101203.94
2022-08-09T10:03:57.003Z,101185.84
2022-08-09T10:08:01.023Z,101186.09
2022-08-09T10:10:40.816Z,101188.28
2022-08-09T10:13:43.172Z,101189.28
2022-08-09T10:20:04.751Z,101183.41
2022-08-09T10:22:50.933Z,101180.50
2022-08-09T10:29:21.385Z,101193.56
2022-08-09T10:38:56.442Z,101185.84
2022-08-09T10:45:17.865Z,101176.00
2022-08-09T10:48:32.971Z,101162.44
2022-08-09T10:51:58.385Z,101162.69
2022-08-09T10:54:36.257Z,101166.13
2022-08-09T12:07:03.154Z,101106.97
2022-08-09T12:10:38.446Z,101111.13
2022-08-09T12:14:08.502Z,101105.28
2022-08-09T12:25:37.309Z,101093.31
2022-08-09T12:56:12.519Z,101071.88
2022-08-09T13:41:50.640Z,101018.34
2022-08-09T13:52:04.980Z,101013.28
2022-08-09T13:55:00.820Z,101011.19
2022-08-09T13:58:00.422Z,101017.28
2022-08-09T14:00:50.618Z,101001.44
2022-08-09T14:04:01.873Z,101007.31
2022-08-09T14:07:03.659Z,101004.47
2022-08-09T14:09:55.642Z,101000.25
2022-08-09T14:16:17.476Z,101001.28
2022-08-09T14:19:14.963Z,101000.13
2022-08-09T14:22:19.931Z,100993.59
2022-08-09T14:25:42.695Z,100993.94
2022-08-09T14:28:33.074Z,100985.94
2022-08-09T14:32:10.761Z,100990.03
2022-08-09T14:34:55.743Z,100976.56
2022-08-09T14:38:02.785Z,100988.25
2022-08-09T14:41:34.758Z,100986.88
2022-08-09T14:47:44.641Z,100962.34
2022-08-09T14:50:20.232Z,100979.31
2022-08-09T14:52:55.273Z,100979.88
2022-08-09T14:55:49.995Z,100969.94
2022-08-09T14:58:24.276Z,100970.50
2022-08-09T15:01:17.169Z,100976.66
2022-08-09T15:04:01.404Z,100964.19
2022-08-09T15:06:57.167Z,100959.94
2022-08-09T15:10:04.578Z,100962.88
2022-08-09T15:12:49.854Z,100959.78
2022-08-09T15:15:21.746Z,100959.34
2022-08-09T15:18:04.941Z,100954.16
2022-08-09T15:25:38.928Z,100955.44
2022-08-09T15:37:37.685Z,100947.09
2022-08-09T15:40:25.293Z,100945.66
2022-08-09T15:43:09.490Z,100938.03
2022-08-09T15:46:28.313Z,100949.34
2022-08-09T15:48:39.636Z,100947.09
2022-08-09T15:51:44.726Z,100934.94
2022-08-09T15:54:20.105Z,100949.16
2022-08-09T15:56:52.785Z,100950.63
2022-08-09T15:59:23.465Z,100937.91
2022-08-09T16:11:04.153Z,100938.59
2022-08-09T16:14:02.930Z,100943.81
2022-08-09T16:16:28.189Z,100934.22
2022-08-09T16:27:36.029Z,100927.00
2022-08-09T16:30:15.318Z,100928.63
2022-08-09T16:33:11.743Z,100926.25
2022-08-09T16:58:21.125Z,100956.22
2022-08-09T17:10:46.687Z,100963.03
2022-08-09T17:13:14.695Z,100959.47
2022-08-09T17:16:00.013Z,100972.78
2022-08-09T17:23:14.758Z,100974.75
2022-08-09T17:25:52.953Z,100973.38
2022-08-09T17:28:29.847Z,100980.66
2022-08-09T17:31:38.836Z,100984.06
2022-08-09T17:35:01.365Z,100975.94
2022-08-09T17:37:19.263Z,100983.19
2022-08-09T17:40:31.977Z,100990.22
2022-08-09T17:47:18.928Z,101001.06
2022-08-09T17:49:55.706Z,101010.09
2022-08-09T17:53:34.820Z,100999.06
2022-08-09T18:44:39.633Z,101063.28
2022-08-09T19:01:32.178Z,101077.91
2022-08-09T20:08:06.093Z,101127.97
2022-08-09T20:16:37.555Z,101129.69
2022-08-09T20:19:03.683Z,101126.19
2022-08-09T20:21:54.753Z,101129.34
2022-08-09T20:24:29.424Z,101135.53
2022-08-09T20:27:08.414Z,101143.84
2022-08-09T20:29:40.954Z,101127.44
2022-08-09T20:32:31.340Z,101140.25
2022-08-09T20:40:14.869Z,101140.50
2022-08-09T20:42:53.280Z,101146.25
2022-08-09T20:45:59.897Z,101142.59
2022-08-09T20:48:21.046Z,101143.75
2022-08-09T20:50:55.809Z,101142.75
2022-08-09T20:53:37.173Z,101139.22
2022-08-09T20:56:26.434Z,101134.28
2022-08-09T20:58:58.810Z,101136.53
2022-08-09T21:01:50.500Z,101141.34
2022-08-09T21:05:53.508Z,101143.81
2022-08-09T21:07:12.802Z,101151.16
2022-08-09T21:09:45.597Z,101149.47
2022-08-09T21:14:48.292Z,101156.28
2022-08-09T21:18:22.166Z,101151.88
2022-08-09T21:20:23.030Z,101158.34
2022-08-09T21:22:54.093Z,101164.84
2022-08-09T21:25:43.990Z,101158.97
2022-08-09T21:28:34.771Z,101162.19
2022-08-09T21:31:16.111Z,101163.56
2022-08-09T21:33:50.821Z,101167.28
2022-08-09T21:36:25.799Z,101168.16
2022-08-09T21:38:57.481Z,101168.00
2022-08-09T21:42:05.774Z,101168.16
2022-08-09T21:44:33.321Z,101163.72
2022-08-09T21:47:08.662Z,101167.59
2022-08-09T21:49:39.779Z,101163.44
2022-08-09T21:52:16.620Z,101177.66
2022-08-09T21:55:03.047Z,101175.09
2022-08-09T21:57:38.641Z,101173.31
2022-08-09T22:00:33.676Z,101174.47
2022-08-09T22:03:06.948Z,101168.38
2022-08-09T22:05:42.224Z,101163.97
2022-08-09T22:08:14.955Z,101168.03
2022-08-09T22:11:50.136Z,101176.44
2022-08-09T22:13:43.203Z,101176.91
2022-08-09T22:16:12.081Z,101188.84
2022-08-09T22:18:44.209Z,101187.53
2022-08-09T22:21:27.377Z,101199.47
2022-08-09T22:24:17.207Z,101186.50
2022-08-09T22:26:51.726Z,101181.28
2022-08-09T22:29:28.834Z,101196.03
2022-08-09T22:32:02.258Z,101193.41
2022-08-09T22:34:30.038Z,101198.81
2022-08-09T22:36:58.930Z,101194.59
2022-08-09T22:39:57.121Z,101201.38
2022-08-09T22:42:20.902Z,101196.22
2022-08-09T22:45:02.490Z,101205.53
2022-08-09T22:48:34.070Z,101209.06
2022-08-09T22:50:29.756Z,101217.81
2022-08-09T22:52:58.717Z,101201.19
2022-08-09T22:55:39.688Z,101209.31
2022-08-09T22:58:20.365Z,101198.38
2022-08-09T23:01:05.635Z,101204.53
2022-08-09T23:04:03.531Z,101200.09
2022-08-09T23:06:35.753Z,101200.66
2022-08-09T23:09:07.001Z,101204.13
2022-08-09T23:11:34.994Z,101205.41
2022-08-09T23:14:10.081Z,101211.34
2022-08-09T23:16:44.881Z,101204.50
2022-08-09T23:19:13.169Z,101202.56
2022-08-09T23:21:40.858Z,101209.66
2022-08-09T23:24:08.656Z,101214.22
2022-08-09T23:26:36.985Z,101210.97
2022-08-09T23:29:11.093Z,101219.19
2022-08-09T23:31:38.565Z,101213.44
2022-08-09T23:34:07.003Z,101221.41
2022-08-09T23:36:35.313Z,101225.66
2022-08-09T23:39:07.607Z,101226.00
2022-08-09T23:41:35.782Z,101225.13
2022-08-09T23:44:04.239Z,101230.38
2022-08-09T23:46:32.279Z,101221.72
2022-08-09T23:49:00.612Z,101228.75
2022-08-09T23:51:28.670Z,101227.91
2022-08-09T23:54:02.401Z,101218.69
2022-08-09T23:56:52.508Z,101219.84
2022-08-09T23:59:21.219Z,101224.22
